createdAt,value
2023-01-13T00:01:06.737Z,100147.22
2023-01-13T00:03:08.330Z,100154.16
2023-01-13T00:05:10.373Z,100141.72
2023-01-13T00:07:12.063Z,100146.94
2023-01-13T00:09:13.727Z,100138.91
2023-01-13T00:11:18.989Z,100138.91
2023-01-13T00:13:22.620Z,100140.31
2023-01-13T00:15:24.296Z,100131.50
2023-01-13T00:17:25.962Z,100145.84
2023-01-13T00:19:27.862Z,100137.44
2023-01-13T00:21:29.611Z,100135.81
2023-01-13T00:23:32.956Z,100121.97
2023-01-13T00:25:34.658Z,100134.53
2023-01-13T00:27:36.467Z,100128.53
2023-01-13T00:29:39.648Z,100139.22
2023-01-13T00:31:41.249Z,100122.91
2023-01-13T00:33:43.408Z,100127.13
2023-01-13T00:35:45.145Z,100124.22
2023-01-13T00:37:46.817Z,100126.03
2023-01-13T00:39:48.613Z,100122.50
2023-01-13T00:41:50.401Z,100129.63
2023-01-13T00:43:52.148Z,100122.69
2023-01-13T00:45:55.610Z,100117.72
2023-01-13T00:47:57.198Z,100111.81
2023-01-13T00:49:58.849Z,100108.91
2023-01-13T00:52:00.463Z,100110.00
2023-01-13T00:54:02.174Z,100100.91
2023-01-13T00:56:05.948Z,100099.78
2023-01-13T00:58:07.533Z,100098.69
2023-01-13T01:00:10.882Z,100097.31
2023-01-13T01:02:14.286Z,100100.28
2023-01-13T01:04:17.576Z,100096.81
2023-01-13T01:06:21.349Z,100096.88
2023-01-13T01:08:23.514Z,100096.19
2023-01-13T01:10:25.454Z,100089.56
2023-01-13T01:12:27.174Z,100083.19
2023-01-13T01:14:29.108Z,100082.28
2023-01-13T01:16:32.960Z,100077.88
2023-01-13T01:18:37.099Z,100071.28
2023-01-13T01:20:38.748Z,100071.56
2023-01-13T01:22:40.389Z,100079.03
2023-01-13T01:24:42.007Z,100075.84
2023-01-13T01:26:43.638Z,100079.97
2023-01-13T01:28:48.531Z,100082.06
2023-01-13T01:30:52.817Z,100086.47
2023-01-13T01:32:54.487Z,100089.88
2023-01-13T01:35:00.287Z,100085.88
2023-01-13T01:37:01.921Z,100085.69
2023-01-13T01:39:04.772Z,100085.38
2023-01-13T01:41:07.156Z,100092.56
2023-01-13T01:43:14.464Z,100087.88
2023-01-13T01:45:19.525Z,100072.53
2023-01-13T01:47:22.642Z,100079.25
2023-01-13T01:49:28.925Z,100074.13
2023-01-13T01:51:35.584Z,100072.66
2023-01-13T01:53:37.908Z,100056.59
2023-01-13T01:55:40.024Z,100062.16
2023-01-13T01:57:48.168Z,100056.56
2023-01-13T01:59:51.016Z,100052.25
2023-01-13T02:01:52.845Z,100052.53
2023-01-13T02:04:01.397Z,100049.94
2023-01-13T02:06:03.422Z,100047.72
2023-01-13T02:08:08.849Z,100048.81
2023-01-13T02:10:12.959Z,100049.13
2023-01-13T02:12:15.636Z,100047.41
2023-01-13T02:14:18.068Z,100048.63
2023-01-13T02:16:23.371Z,100056.16
2023-01-13T02:18:36.333Z,100062.75
2023-01-13T02:20:55.243Z,100047.13
2023-01-13T02:23:30.613Z,100051.13
2023-01-13T02:26:00.712Z,100044.13
2023-01-13T02:28:30.451Z,100044.94
2023-01-13T02:30:40.672Z,100041.72
2023-01-13T02:32:56.375Z,100046.03
2023-01-13T02:35:05.276Z,100034.63
2023-01-13T02:37:14.253Z,100033.72
2023-01-13T02:39:23.123Z,100031.31
2023-01-13T02:41:31.515Z,100026.88
2023-01-13T02:43:38.453Z,100032.28
2023-01-13T02:45:51.104Z,100031.31
2023-01-13T02:47:53.912Z,100025.41
2023-01-13T02:50:00.288Z,100015.88
2023-01-13T02:52:09.085Z,100017.47
2023-01-13T02:54:15.562Z,100011.06
2023-01-13T02:56:17.957Z,100003.47
2023-01-13T02:58:24.105Z,100014.91
2023-01-13T03:00:26.911Z,100009.28
2023-01-13T03:02:29.929Z,100012.16
2023-01-13T03:04:54.184Z,100005.16
2023-01-13T03:07:04.131Z,99999.28
2023-01-13T03:09:12.081Z,99995.69
2023-01-13T03:11:16.738Z,100000.78
2023-01-13T03:13:33.402Z,99987.19
2023-01-13T03:15:43.626Z,99989.75
2023-01-13T03:17:55.780Z,99996.59
2023-01-13T03:20:04.868Z,99988.06
2023-01-13T03:22:18.157Z,99997.78
2023-01-13T03:24:25.781Z,99986.56
2023-01-13T03:26:33.990Z,99986.56
2023-01-13T03:28:40.366Z,99976.66
2023-01-13T03:30:48.531Z,99978.44
2023-01-13T03:32:58.781Z,99990.16
2023-01-13T03:35:08.020Z,99984.47
2023-01-13T03:37:10.911Z,99979.16
2023-01-13T03:39:19.920Z,99981.78
2023-01-13T03:41:25.899Z,99988.75
2023-01-13T03:43:33.589Z,99987.78
2023-01-13T03:45:37.142Z,99983.88
2023-01-13T03:47:42.688Z,99987.84
2023-01-13T03:49:52.746Z,99977.47
2023-01-13T03:51:58.703Z,99974.78
2023-01-13T03:54:04.972Z,99973.16
2023-01-13T03:56:15.809Z,99959.16
2023-01-13T03:58:22.457Z,99966.56
2023-01-13T04:00:31.735Z,99959.75
2023-01-13T04:02:44.048Z,99967.47
2023-01-13T04:04:51.999Z,99962.56
2023-01-13T04:06:58.210Z,99968.66
2023-01-13T04:09:06.677Z,99960.56
2023-01-13T04:11:14.614Z,99953.47
2023-01-13T04:13:20.559Z,99947.16
2023-01-13T04:15:25.264Z,99955.03
2023-01-13T04:17:26.908Z,99956.44
2023-01-13T04:19:28.596Z,99951.53
2023-01-13T04:21:31.871Z,99947.97
2023-01-13T04:23:34.160Z,99945.81
2023-01-13T04:25:36.268Z,99943.84
2023-01-13T04:27:38.100Z,99940.66
2023-01-13T04:29:39.780Z,99947.25
2023-01-13T04:31:41.574Z,99951.22
2023-01-13T04:33:43.435Z,99950.66
2023-01-13T04:35:46.346Z,99950.13
2023-01-13T04:37:49.542Z,99937.16
2023-01-13T04:39:51.270Z,99943.56
2023-01-13T04:41:52.929Z,99943.06
2023-01-13T04:43:54.645Z,99950.06
2023-01-13T04:45:56.316Z,99947.25
2023-01-13T04:47:58.612Z,99945.91
2023-01-13T04:50:01.763Z,99946.03
2023-01-13T04:52:04.253Z,99950.94
2023-01-13T04:54:10.417Z,99945.44
2023-01-13T04:56:12.086Z,99943.63
2023-01-13T04:58:15.334Z,99940.72
2023-01-13T05:00:20.142Z,99944.53
2023-01-13T05:02:22.077Z,99930.44
2023-01-13T05:04:24.142Z,99943.63
2023-01-13T05:06:28.006Z,99935.66
2023-01-13T05:08:29.666Z,99943.94
2023-01-13T05:10:32.734Z,99942.16
2023-01-13T05:12:34.549Z,99937.06
2023-01-13T05:14:36.185Z,99926.44
2023-01-13T05:16:37.913Z,99925.84
2023-01-13T05:18:39.850Z,99933.03
2023-01-13T05:20:43.061Z,99924.66
2023-01-13T05:22:44.699Z,99926.53
2023-01-13T05:24:47.069Z,99912.78
2023-01-13T05:26:50.196Z,99903.59
2023-01-13T05:28:52.021Z,99911.50
2023-01-13T05:30:53.772Z,99904.50
2023-01-13T05:32:55.724Z,99903.41
2023-01-13T05:34:57.781Z,99899.22
2023-01-13T05:36:59.443Z,99899.28
2023-01-13T05:39:01.088Z,99912.94
2023-01-13T05:41:02.947Z,99897.00
2023-01-13T05:43:09.076Z,99904.00
2023-01-13T05:45:11.416Z,99897.63
2023-01-13T05:47:13.040Z,99904.91
2023-01-13T05:49:14.600Z,99909.81
2023-01-13T05:51:16.192Z,99908.72
2023-01-13T05:53:18.440Z,99927.63
2023-01-13T05:55:20.123Z,99915.22
2023-01-13T05:57:21.914Z,99923.59
2023-01-13T05:59:24.891Z,99911.63
2023-01-13T06:01:26.578Z,99903.09
2023-01-13T06:03:28.388Z,99897.22
2023-01-13T06:05:30.744Z,99908.03
2023-01-13T06:07:32.408Z,99912.50
2023-01-13T06:09:34.052Z,99912.00
2023-01-13T06:11:35.670Z,99921.72
2023-01-13T06:13:37.339Z,99921.94
2023-01-13T06:15:40.318Z,99919.63
2023-01-13T06:17:41.960Z,99927.13
2023-01-13T06:19:43.623Z,99927.63
2023-01-13T06:21:45.514Z,99923.19
2023-01-13T06:23:47.365Z,99939.63
2023-01-13T06:25:56.593Z,99931.34
2023-01-13T06:27:59.942Z,99937.84
2023-01-13T06:30:01.611Z,99945.81
2023-01-13T06:32:09.584Z,99942.94
2023-01-13T06:34:14.861Z,99944.06
2023-01-13T06:36:19.507Z,99949.25
2023-01-13T06:38:25.353Z,99936.44
2023-01-13T06:40:30.340Z,99935.44
2023-01-13T06:42:35.428Z,99943.75
2023-01-13T06:44:37.581Z,99947.75
2023-01-13T06:46:39.548Z,99956.25
2023-01-13T06:48:42.694Z,99958.56
2023-01-13T06:50:44.883Z,99969.75
2023-01-13T06:52:46.799Z,99997.09
2023-01-13T06:54:48.583Z,100003.06
2023-01-13T06:56:51.696Z,100000.88
2023-01-13T06:58:53.393Z,100007.88
2023-01-13T07:00:59.265Z,100005.06
2023-01-13T07:03:11.967Z,100003.28
2023-01-13T07:05:15.817Z,100002.50
2023-01-13T07:07:17.474Z,100011.72
2023-01-13T07:09:19.226Z,99998.47
2023-01-13T07:11:22.212Z,100010.31
2023-01-13T07:13:24.061Z,100001.91
2023-01-13T07:15:29.039Z,100003.41
2023-01-13T07:17:30.643Z,99999.59
2023-01-13T07:19:32.575Z,100000.19
2023-01-13T07:21:35.549Z,100006.59
2023-01-13T07:23:39.078Z,100008.59
2023-01-13T07:25:40.706Z,100022.13
2023-01-13T07:27:42.404Z,100023.53
2023-01-13T07:29:46.788Z,100018.91
2023-01-13T07:31:50.144Z,100028.63
2023-01-13T07:33:52.264Z,100033.94
2023-01-13T07:35:57.059Z,100030.72
2023-01-13T07:38:00.176Z,100028.81
2023-01-13T07:40:02.186Z,100031.84
2023-01-13T07:42:04.040Z,100045.72
2023-01-13T07:44:06.355Z,100052.53
2023-01-13T07:46:08.101Z,100046.91
2023-01-13T07:48:09.874Z,100047.94
2023-01-13T07:50:12.000Z,100045.50
2023-01-13T07:52:13.838Z,100021.28
2023-01-13T07:54:21.146Z,100027.41
2023-01-13T07:56:27.407Z,100020.28
2023-01-13T07:58:29.465Z,100023.78
2023-01-13T08:00:31.082Z,100030.69
2023-01-13T08:02:33.209Z,100026.88
2023-01-13T08:04:35.012Z,100025.00
2023-01-13T08:06:39.009Z,100036.19
2023-01-13T08:08:40.777Z,100042.69
2023-01-13T08:10:44.276Z,100052.53
2023-01-13T08:12:53.065Z,100061.72
2023-01-13T08:14:59.044Z,100075.50
2023-01-13T08:17:00.966Z,100075.19
2023-01-13T08:19:02.600Z,100078.31
2023-01-13T08:21:06.474Z,100097.31
2023-01-13T08:23:08.145Z,100103.75
2023-01-13T08:25:09.859Z,100117.75
2023-01-13T08:27:13.252Z,100113.72
2023-01-13T08:29:16.192Z,100115.66
2023-01-13T08:31:18.241Z,100122.97
2023-01-13T08:33:20.574Z,100126.38
2023-01-13T08:35:22.709Z,100122.34
2023-01-13T08:37:24.591Z,100148.28
2023-01-13T08:39:26.282Z,100141.19
2023-01-13T08:41:28.196Z,100153.09
2023-01-13T08:43:31.207Z,100151.44
2023-01-13T08:45:33.165Z,100145.56
2023-01-13T08:47:35.212Z,100145.34
2023-01-13T08:49:37.077Z,100152.56
2023-01-13T08:51:38.805Z,100162.78
2023-01-13T08:53:40.537Z,100153.88
2023-01-13T08:55:42.237Z,100144.66
2023-01-13T08:57:44.006Z,100156.88
2023-01-13T08:59:47.224Z,100156.38
2023-01-13T09:01:48.975Z,100163.38
2023-01-13T09:03:50.905Z,100163.38
2023-01-13T09:05:52.723Z,100157.78
2023-01-13T09:07:54.410Z,100163.19
2023-01-13T09:09:56.154Z,100155.59
2023-01-13T09:11:57.957Z,100153.31
2023-01-13T09:14:01.232Z,100160.53
2023-01-13T09:16:06.237Z,100171.47
2023-01-13T09:18:07.999Z,100171.84
2023-01-13T09:20:11.273Z,100179.16
2023-01-13T09:22:16.293Z,100174.75
2023-01-13T09:24:20.220Z,100173.84
2023-01-13T09:26:21.987Z,100172.63
2023-01-13T09:28:23.751Z,100173.84
2023-01-13T09:30:25.802Z,100178.56
2023-01-13T09:32:28.906Z,100180.47
2023-01-13T09:34:30.659Z,100188.69
2023-01-13T09:36:32.329Z,100190.78
2023-01-13T09:38:34.045Z,100197.38
2023-01-13T09:40:39.672Z,100195.69
2023-01-13T09:42:46.845Z,100198.88
2023-01-13T09:44:53.216Z,100198.88
2023-01-13T09:46:58.882Z,100199.50
2023-01-13T09:49:02.696Z,100190.28
2023-01-13T09:51:11.978Z,100192.97
2023-01-13T09:53:20.152Z,100207.63
2023-01-13T09:55:26.770Z,100207.91
2023-01-13T09:57:32.620Z,100204.91
2023-01-13T09:59:34.733Z,100201.09
2023-01-13T10:01:44.282Z,100206.09
2023-01-13T10:03:46.128Z,100214.72
2023-01-13T10:05:55.646Z,100219.34
2023-01-13T10:08:01.789Z,100210.94
2023-01-13T10:10:09.529Z,100212.22
2023-01-13T10:12:17.430Z,100210.72
2023-01-13T10:14:23.857Z,100211.22
2023-01-13T10:16:33.742Z,100206.50
2023-01-13T10:18:49.107Z,100214.13
2023-01-13T10:21:01.081Z,100216.81
2023-01-13T10:23:14.500Z,100210.00
2023-01-13T10:25:33.123Z,100208.03
2023-01-13T10:27:37.281Z,100199.91
2023-01-13T10:29:39.089Z,100199.59
2023-01-13T10:31:41.276Z,100192.31
2023-01-13T10:33:43.003Z,100204.28
2023-01-13T10:36:15.192Z,100205.13
2023-01-13T10:38:19.057Z,100203.69
2023-01-13T10:40:20.927Z,100205.63
2023-01-13T10:42:24.104Z,100205.72
2023-01-13T10:44:26.004Z,100213.75
2023-01-13T10:46:29.537Z,100218.06
2023-01-13T10:48:40.827Z,100221.66
2023-01-13T10:50:44.010Z,100226.34
2023-01-13T10:53:01.179Z,100224.38
2023-01-13T10:55:04.027Z,100217.94
2023-01-13T10:57:19.806Z,100229.66
2023-01-13T10:59:23.560Z,100223.47
2023-01-13T11:01:27.187Z,100212.34
2023-01-13T11:03:38.179Z,100215.16
2023-01-13T11:05:40.115Z,100216.16
2023-01-13T11:07:47.350Z,100213.94
2023-01-13T11:10:05.981Z,100216.84
2023-01-13T11:12:30.050Z,100210.84
2023-01-13T11:14:38.694Z,100210.34
2023-01-13T11:16:52.747Z,100218.38
2023-01-13T11:18:59.611Z,100212.75
2023-01-13T11:21:07.761Z,100205.53
2023-01-13T11:23:15.708Z,100215.25
2023-01-13T11:25:23.649Z,100229.97
2023-01-13T11:27:37.090Z,100223.88
2023-01-13T11:29:47.778Z,100221.19
2023-01-13T11:31:54.305Z,100224.09
2023-01-13T11:34:02.841Z,100217.84
2023-01-13T11:36:10.948Z,100215.63
2023-01-13T11:38:20.440Z,100214.00
2023-01-13T11:40:31.098Z,100207.22
2023-01-13T11:42:41.677Z,100200.31
2023-01-13T11:44:50.680Z,100201.25
2023-01-13T11:46:53.733Z,100203.56
2023-01-13T11:48:59.391Z,100218.78
2023-01-13T11:51:08.206Z,100216.59
2023-01-13T11:53:28.499Z,100223.19
2023-01-13T11:55:38.630Z,100223.19
2023-01-13T11:57:56.269Z,100227.19
2023-01-13T12:00:16.488Z,100226.50
2023-01-13T12:02:33.852Z,100227.84
2023-01-13T12:04:43.875Z,100230.53
2023-01-13T12:06:48.403Z,100228.28
2023-01-13T12:09:12.112Z,100214.41
2023-01-13T12:11:25.323Z,100218.84
2023-01-13T12:13:44.710Z,100226.94
2023-01-13T12:16:15.192Z,100232.47
2023-01-13T12:18:40.688Z,100235.63
2023-01-13T12:20:51.889Z,100229.34
2023-01-13T12:22:57.967Z,100241.03
2023-01-13T12:25:05.926Z,100240.72
2023-01-13T12:27:15.698Z,100234.00
2023-01-13T12:29:19.315Z,100224.19
2023-01-13T12:31:22.191Z,100220.31
2023-01-13T12:33:40.044Z,100215.19
2023-01-13T12:35:49.550Z,100216.72
2023-01-13T12:37:58.552Z,100227.13
2023-01-13T12:40:19.480Z,100221.66
2023-01-13T12:42:29.984Z,100210.91
2023-01-13T12:44:31.898Z,100220.13
2023-01-13T12:46:35.507Z,100219.34
2023-01-13T12:49:03.892Z,100225.84
2023-01-13T12:51:21.573Z,100222.44
2023-01-13T12:53:36.368Z,100225.66
2023-01-13T12:55:38.160Z,100217.81
2023-01-13T12:57:56.590Z,100219.34
2023-01-13T13:00:22.300Z,100240.59
2023-01-13T13:02:32.996Z,100224.56
2023-01-13T13:04:43.624Z,100209.13
2023-01-13T13:06:52.438Z,100220.56
2023-01-13T13:09:04.039Z,100199.44
2023-01-13T13:11:35.262Z,100195.59
2023-01-13T13:13:44.789Z,100200.13
2023-01-13T13:15:49.011Z,100195.31
2023-01-13T13:18:35.233Z,100197.03
2023-01-13T13:21:04.002Z,100210.03
2023-01-13T13:23:27.146Z,100239.53
2023-01-13T13:25:28.848Z,100240.84
2023-01-13T13:27:43.560Z,100249.34
2023-01-13T13:29:52.505Z,100252.03
2023-01-13T13:32:12.668Z,100245.94
2023-01-13T13:34:27.509Z,100263.25
2023-01-13T13:36:50.365Z,100269.00
2023-01-13T13:39:15.652Z,100271.88
2023-01-13T13:41:22.461Z,100262.09
2023-01-13T13:43:24.939Z,100271.81
2023-01-13T13:45:31.188Z,100281.22
2023-01-13T13:47:35.868Z,100280.63
2023-01-13T13:49:40.546Z,100293.84
2023-01-13T13:51:47.964Z,100292.13
2023-01-13T13:53:49.789Z,100299.25
2023-01-13T13:55:57.565Z,100305.25
2023-01-13T13:57:59.827Z,100303.97
2023-01-13T14:00:08.437Z,100322.19
2023-01-13T14:02:21.113Z,100319.28
2023-01-13T14:04:24.873Z,100315.19
2023-01-13T14:06:26.730Z,100319.56
2023-01-13T14:08:30.437Z,100316.97
2023-01-13T14:10:34.960Z,100314.84
2023-01-13T14:12:38.427Z,100307.25
2023-01-13T14:14:43.069Z,100304.94
2023-01-13T14:16:44.973Z,100306.81
2023-01-13T14:18:48.652Z,100313.34
2023-01-13T14:20:55.061Z,100325.72
2023-01-13T14:22:59.900Z,100341.03
2023-01-13T14:25:01.695Z,100351.91
2023-01-13T14:27:11.044Z,100329.88
2023-01-13T14:29:19.794Z,100319.56
2023-01-13T14:31:24.876Z,100320.00
2023-01-13T14:33:33.828Z,100324.81
2023-01-13T14:35:36.822Z,100335.84
2023-01-13T14:37:41.290Z,100343.53
2023-01-13T14:39:42.944Z,100349.22
2023-01-13T14:41:46.850Z,100350.53
2023-01-13T14:43:50.530Z,100354.94
2023-01-13T14:45:57.532Z,100354.41
2023-01-13T14:48:01.420Z,100374.44
2023-01-13T14:50:06.905Z,100364.13
2023-01-13T14:52:17.099Z,100371.09
2023-01-13T14:54:52.653Z,100377.97
2023-01-13T14:57:12.218Z,100374.38
2023-01-13T14:59:42.047Z,100383.94
2023-01-13T15:01:44.042Z,100390.75
2023-01-13T15:03:45.845Z,100394.91
2023-01-13T15:05:48.972Z,100407.38
2023-01-13T15:07:54.058Z,100404.19
2023-01-13T15:09:59.510Z,100404.25
2023-01-13T15:12:15.566Z,100406.16
2023-01-13T15:14:23.649Z,100405.56
2023-01-13T15:16:27.158Z,100406.66
2023-01-13T15:18:29.069Z,100414.59
2023-01-13T15:20:30.936Z,100416.16
2023-01-13T15:22:34.546Z,100421.56
2023-01-13T15:24:37.615Z,100431.28
2023-01-13T15:26:39.333Z,100436.28
2023-01-13T15:28:41.205Z,100436.84
2023-01-13T15:30:43.449Z,100445.22
2023-01-13T15:32:45.738Z,100450.13
2023-01-13T15:34:48.633Z,100454.16
2023-01-13T15:36:50.379Z,100457.38
2023-01-13T15:38:52.359Z,100460.53
2023-01-13T15:40:57.815Z,100460.81
2023-01-13T15:42:59.567Z,100458.31
2023-01-13T15:45:01.381Z,100457.91
2023-01-13T15:47:06.857Z,100462.19
2023-01-13T15:49:22.943Z,100459.41
2023-01-13T15:51:26.756Z,100465.63
2023-01-13T15:53:28.800Z,100465.13
2023-01-13T15:55:37.725Z,100458.19
2023-01-13T15:57:49.614Z,100468.09
2023-01-13T15:59:58.460Z,100458.63
2023-01-13T16:02:16.159Z,100454.09
2023-01-13T16:04:22.671Z,100459.97
2023-01-13T16:06:31.913Z,100461.91
2023-01-13T16:08:33.843Z,100473.81
2023-01-13T16:11:27.080Z,100476.25
2023-01-13T16:13:30.261Z,100475.94
2023-01-13T16:23:11.168Z,100500.75
2023-01-13T16:25:16.443Z,100509.97
2023-01-13T16:27:20.427Z,100515.94
2023-01-13T16:29:22.137Z,100510.63
2023-01-13T16:31:26.816Z,100528.63
2023-01-13T16:33:28.419Z,100528.88
2023-01-13T16:35:30.372Z,100535.59
2023-01-13T16:37:31.928Z,100533.97
2023-01-13T16:39:34.910Z,100553.44
2023-01-13T16:41:36.567Z,100545.13
2023-01-13T16:43:38.616Z,100565.31
2023-01-13T16:45:41.081Z,100567.16
2023-01-13T16:47:42.671Z,100572.34
2023-01-13T16:49:45.112Z,100577.78
2023-01-13T16:51:46.751Z,100575.63
2023-01-13T16:53:49.007Z,100582.59
2023-01-13T16:55:51.978Z,100577.69
2023-01-13T16:57:53.628Z,100581.13
2023-01-13T16:59:55.227Z,100573.22
2023-01-13T17:01:56.955Z,100578.84
2023-01-13T17:03:59.182Z,100576.66
2023-01-13T17:06:01.958Z,100585.00
2023-01-13T17:08:03.840Z,100574.97
2023-01-13T17:10:06.309Z,100585.78
2023-01-13T17:12:09.958Z,100587.13
2023-01-13T17:14:19.282Z,100591.94
2023-01-13T17:16:24.264Z,100596.78
2023-01-13T17:18:25.939Z,100593.22
2023-01-13T17:20:28.161Z,100593.22
2023-01-13T17:22:29.733Z,100597.59
2023-01-13T17:24:31.357Z,100606.19
2023-01-13T17:26:35.419Z,100604.38
2023-01-13T17:28:38.540Z,100612.44
2023-01-13T17:30:43.513Z,100610.88
2023-01-13T17:32:45.092Z,100614.63
2023-01-13T17:34:47.294Z,100621.63
2023-01-13T17:36:49.378Z,100621.06
2023-01-13T17:38:51.047Z,100635.38
2023-01-13T17:40:52.641Z,100636.81
2023-01-13T17:42:54.311Z,100630.38
2023-01-13T17:44:57.318Z,100640.16
2023-01-13T17:46:58.900Z,100637.25
2023-01-13T17:49:00.451Z,100651.47
2023-01-13T17:51:01.996Z,100640.59
2023-01-13T17:53:03.640Z,100645.72
2023-01-13T17:55:06.034Z,100649.47
2023-01-13T17:57:07.771Z,100648.78
2023-01-13T17:59:11.711Z,100653.88
2023-01-13T18:01:16.856Z,100640.66
2023-01-13T18:03:18.830Z,100656.31
2023-01-13T18:05:20.436Z,100662.22
2023-01-13T18:07:22.032Z,100654.13
2023-01-13T18:09:23.591Z,100663.84
2023-01-13T18:11:26.009Z,100673.03
2023-01-13T18:13:27.608Z,100667.69
2023-01-13T18:15:29.393Z,100683.38
2023-01-13T18:17:32.436Z,100678.97
2023-01-13T18:19:33.981Z,100679.19
2023-01-13T18:21:35.568Z,100676.25
2023-01-13T18:23:37.145Z,100673.63
2023-01-13T18:25:39.594Z,100685.44
2023-01-13T18:27:41.219Z,100686.28
2023-01-13T18:29:43.178Z,100691.72
2023-01-13T18:31:45.093Z,100699.56
2023-01-13T18:33:48.076Z,100707.38
2023-01-13T18:35:50.090Z,100718.72
2023-01-13T18:37:51.764Z,100711.16
2023-01-13T18:39:53.652Z,100708.72
2023-01-13T18:41:55.258Z,100716.88
2023-01-13T18:43:57.036Z,100713.09
2023-01-13T18:45:58.745Z,100725.78
2023-01-13T18:48:02.425Z,100727.69
2023-01-13T18:50:06.547Z,100729.34
2023-01-13T18:52:08.140Z,100734.28
2023-01-13T18:54:09.833Z,100721.06
2023-01-13T18:56:12.690Z,100721.31
2023-01-13T18:58:14.257Z,100724.31
2023-01-13T19:00:19.367Z,100720.78
2023-01-13T19:02:21.144Z,100734.84
2023-01-13T19:04:22.756Z,100739.97
2023-01-13T19:06:26.564Z,100741.41
2023-01-13T19:08:28.377Z,100745.53
2023-01-13T19:10:30.066Z,100752.03
2023-01-13T19:12:32.090Z,100748.88
2023-01-13T19:14:33.729Z,100750.16
2023-01-13T19:16:35.496Z,100751.97
2023-01-13T19:18:37.079Z,100750.34
2023-01-13T19:20:38.655Z,100751.19
2023-01-13T19:22:41.644Z,100765.72
2023-01-13T19:24:43.454Z,100765.78
2023-01-13T19:26:45.124Z,100772.28
2023-01-13T19:28:46.657Z,100774.22
2023-01-13T19:30:50.660Z,100773.38
2023-01-13T19:32:52.314Z,100772.81
2023-01-13T19:34:53.953Z,100779.06
2023-01-13T19:36:55.642Z,100770.19
2023-01-13T19:38:58.646Z,100771.81
2023-01-13T19:41:02.184Z,100769.66
2023-01-13T19:43:03.840Z,100785.56
2023-01-13T19:45:06.476Z,100789.09
2023-01-13T19:47:08.072Z,100793.13
2023-01-13T19:49:09.777Z,100806.09
2023-01-13T19:51:11.728Z,100808.78
2023-01-13T19:53:16.715Z,100812.56
2023-01-13T19:55:19.950Z,100806.88
2023-01-13T19:57:21.588Z,100812.03
2023-01-13T19:59:23.411Z,100827.41
2023-01-13T20:01:25.174Z,100827.97
2023-01-13T20:03:27.265Z,100825.00
2023-01-13T20:05:28.909Z,100825.84
2023-01-13T20:07:32.917Z,100821.22
2023-01-13T20:09:34.910Z,100819.94
2023-01-13T20:11:38.180Z,100828.06
2023-01-13T20:13:39.803Z,100831.88
2023-01-13T20:15:41.973Z,100858.09
2023-01-13T20:17:43.997Z,100855.66
2023-01-13T20:19:46.136Z,100854.81
2023-01-13T20:21:47.800Z,100851.38
2023-01-13T20:23:50.139Z,100853.53
2023-01-13T20:25:51.780Z,100848.16
2023-01-13T20:27:56.251Z,100854.06
2023-01-13T20:29:57.839Z,100845.97
2023-01-13T20:31:59.812Z,100855.44
2023-01-13T20:34:01.467Z,100845.19
2023-01-13T20:36:03.537Z,100842.53
2023-01-13T20:38:05.292Z,100846.06
2023-01-13T20:40:08.374Z,100851.69
2023-01-13T20:42:10.210Z,100846.06
2023-01-13T20:44:14.102Z,100840.09
2023-01-13T20:46:15.888Z,100830.69
2023-01-13T20:48:17.712Z,100840.66
2023-01-13T20:50:19.567Z,100844.44
2023-01-13T20:52:21.237Z,100844.41
2023-01-13T20:54:23.300Z,100845.47
2023-01-13T20:56:25.169Z,100850.34
2023-01-13T20:58:26.855Z,100845.72
2023-01-13T21:00:29.862Z,100843.91
2023-01-13T21:02:31.571Z,100839.56
2023-01-13T21:04:33.475Z,100847.13
2023-01-13T21:06:35.400Z,100841.16
2023-01-13T21:08:36.974Z,100841.75
2023-01-13T21:10:38.648Z,100845.81
2023-01-13T21:12:40.230Z,100847.41
2023-01-13T21:14:41.833Z,100839.56
2023-01-13T21:16:44.799Z,100849.53
2023-01-13T21:18:46.535Z,100843.91
2023-01-13T21:20:48.235Z,100849.53
2023-01-13T21:22:50.085Z,100840.13
2023-01-13T21:24:51.814Z,100838.50
2023-01-13T21:26:53.405Z,100842.56
2023-01-13T21:29:05.288Z,100837.13
2023-01-13T21:31:09.211Z,100841.16
2023-01-13T21:33:14.114Z,100843.31
2023-01-13T21:35:16.053Z,100834.72
2023-01-13T21:37:17.834Z,100849.28
2023-01-13T21:39:19.378Z,100852.53
2023-01-13T21:41:21.260Z,100859.25
2023-01-13T21:43:22.831Z,100856.31
2023-01-13T21:45:24.448Z,100864.13
2023-01-13T21:47:26.209Z,100859.50
2023-01-13T21:49:29.270Z,100864.66
2023-01-13T21:51:31.493Z,100868.44
2023-01-13T21:53:33.334Z,100869.81
2023-01-13T21:55:35.911Z,100872.50
2023-01-13T21:57:37.683Z,100874.13
2023-01-13T21:59:39.324Z,100877.31
2023-01-13T22:02:23.431Z,100883.00
2023-01-13T22:04:02.519Z,100883.28
2023-01-13T22:06:06.076Z,100889.22
2023-01-13T22:08:07.695Z,100884.91
2023-01-13T22:10:11.106Z,100888.16
2023-01-13T22:12:12.875Z,100898.41
2023-01-13T22:14:14.450Z,100905.13
2023-01-13T22:16:16.154Z,100904.88
2023-01-13T22:18:17.808Z,100906.22
2023-01-13T22:20:20.282Z,100906.78
2023-01-13T22:22:23.945Z,100903.81
2023-01-13T22:24:25.541Z,100894.91
2023-01-13T22:26:27.466Z,100888.69
2023-01-13T22:28:29.187Z,100895.44
2023-01-13T22:30:30.771Z,100895.97
2023-01-13T22:32:35.901Z,100884.13
2023-01-13T22:34:37.682Z,100894.38
2023-01-13T22:36:39.258Z,100902.22
2023-01-13T22:38:42.210Z,100897.06
2023-01-13T22:40:43.914Z,100895.44
2023-01-13T22:42:45.479Z,100905.41
2023-01-13T22:44:47.075Z,100908.16
2023-01-13T22:46:48.862Z,100896.53
2023-01-13T22:48:50.511Z,100903.84
2023-01-13T22:50:52.200Z,100905.72
2023-01-13T22:52:53.733Z,100913.53
2023-01-13T22:54:56.653Z,100916.50
2023-01-13T22:56:58.241Z,100921.91
2023-01-13T22:59:01.820Z,100923.50
2023-01-13T23:01:10.741Z,100933.50
2023-01-13T23:03:12.391Z,100938.91
2023-01-13T23:05:14.176Z,100937.53
2023-01-13T23:07:15.719Z,100943.19
2023-01-13T23:09:17.266Z,100947.81
2023-01-13T23:11:22.520Z,100944.81
2023-01-13T23:13:24.110Z,100942.13
2023-01-13T23:15:25.629Z,100942.91
2023-01-13T23:17:27.252Z,100939.44
2023-01-13T23:19:28.776Z,100946.72
2023-01-13T23:21:33.026Z,100938.91
2023-01-13T23:23:34.724Z,100945.91
2023-01-13T23:25:36.377Z,100943.22
2023-01-13T23:27:39.685Z,100942.69
2023-01-13T23:29:41.420Z,100955.63
2023-01-13T23:31:42.986Z,100962.09
2023-01-13T23:33:45.303Z,100962.63
2023-01-13T23:35:56.882Z,100961.84
2023-01-13T23:37:58.456Z,100962.13
2023-01-13T23:39:59.979Z,100961.28
2023-01-13T23:42:01.707Z,100973.72
2023-01-13T23:44:04.897Z,100958.59
2023-01-13T23:46:09.075Z,100966.69
2023-01-13T23:48:10.919Z,100960.22
2023-01-13T23:50:12.527Z,100957.25
2023-01-13T23:52:14.141Z,100955.63
2023-01-13T23:54:15.663Z,100957.53
2023-01-13T23:56:19.196Z,100967.22
2023-01-13T23:58:20.856Z,100964.25
